Terminal Aerodrome Forecast
Issued by NWS Bismarck, ND

Home | Current Version | Previous Version | Text Only | Print | Product List | Glossary Off
Versions: 1 2 3 4 5 6 7 8 9 10 11 12

000
FTUS43 KBIS 271139
TAFISN
TAF
KISN 271139Z 2712/2812 22003KT P6SM SCT090 SCT120
     FM271800 21008KT P6SM SCT120
     FM280100 18009KT P6SM SCT250
     FM280300 15006KT P6SM SCT250=

USA.gov is the U.S. government's official web portal to all federal, state and local government web resources and services.